createdAt,value
2019-01-06T00:01:33.007Z,8.03
2019-01-06T00:04:19.617Z,7.43
2019-01-06T00:07:06.206Z,8.63
2019-01-06T00:09:52.823Z,8.83
2019-01-06T00:15:27.753Z,10.20
2019-01-06T00:18:14.376Z,10.37
2019-01-06T00:21:01.159Z,9.87
2019-01-06T00:26:23.575Z,9.40
2019-01-06T00:29:10.162Z,7.83
2019-01-06T00:31:56.772Z,5.20
2019-01-06T00:34:43.379Z,5.30
2019-01-06T00:37:30.016Z,5.50
2019-01-06T00:40:16.876Z,4.83
2019-01-06T00:43:03.458Z,4.77
2019-01-06T00:53:37.441Z,5.50
2019-01-06T00:56:24.034Z,5.53
2019-01-06T00:59:10.631Z,5.97
2019-01-06T01:04:31.606Z,6.57
2019-01-06T01:07:18.422Z,6.07
2019-01-06T01:12:39.552Z,6.90
2019-01-06T01:18:14.238Z,6.90
2019-01-06T01:21:00.851Z,8.17
2019-01-06T01:23:47.464Z,8.30
2019-01-06T01:26:34.072Z,8.13
2019-01-06T01:29:20.670Z,9.10
2019-01-06T01:32:07.514Z,7.03
2019-01-06T01:34:54.108Z,7.90
2019-01-06T01:37:40.952Z,7.47
2019-01-06T01:43:07.372Z,8.97
2019-01-06T01:45:54.354Z,9.03
2019-01-06T01:48:40.946Z,9.97
2019-01-06T01:51:27.557Z,10.73
2019-01-06T01:54:14.146Z,11.30
2019-01-06T01:57:00.858Z,11.37
2019-01-06T01:59:47.464Z,10.57
2019-01-06T02:05:08.574Z,10.33
2019-01-06T02:07:55.165Z,9.10
2019-01-06T02:10:41.774Z,9.37
2019-01-06T02:13:28.386Z,9.30
2019-01-06T02:16:15.226Z,9.90
2019-01-06T02:19:02.059Z,11.03
2019-01-06T02:21:48.683Z,11.60
2019-01-06T02:24:35.298Z,11.47
2019-01-06T02:27:21.899Z,11.37
2019-01-06T02:30:08.507Z,11.03
2019-01-06T02:32:55.098Z,11.77
2019-01-06T02:35:41.713Z,12.13
2019-01-06T02:38:28.539Z,10.90
2019-01-06T02:41:15.386Z,12.63
2019-01-06T02:46:50.070Z,12.80
2019-01-06T02:49:36.670Z,11.83
2019-01-06T02:52:23.286Z,14.17
2019-01-06T02:55:09.919Z,11.97
2019-01-06T02:57:56.514Z,13.53
2019-01-06T03:00:43.129Z,13.63
2019-01-06T03:06:17.827Z,13.37
2019-01-06T03:09:04.433Z,13.33
2019-01-06T03:11:51.043Z,13.67
2019-01-06T03:14:37.651Z,11.00
2019-01-06T03:20:12.338Z,13.03
2019-01-06T03:25:47.095Z,11.40
2019-01-06T03:28:33.690Z,12.63
2019-01-06T03:31:20.544Z,12.23
2019-01-06T03:47:50.318Z,13.40
2019-01-06T03:50:36.931Z,12.60
2019-01-06T03:53:23.517Z,12.63
2019-01-06T03:56:10.131Z,13.00
2019-01-06T04:01:31.367Z,12.33
2019-01-06T04:09:40.542Z,12.77
2019-01-06T04:17:49.641Z,11.70
2019-01-06T04:20:36.241Z,12.70
2019-01-06T04:26:11.170Z,12.27
2019-01-06T04:28:58.004Z,12.40
2019-01-06T04:31:44.845Z,12.07
2019-01-06T04:37:19.531Z,11.37
2019-01-06T04:40:06.131Z,11.17
2019-01-06T04:45:27.065Z,11.70
2019-01-06T04:48:13.679Z,11.20
2019-01-06T04:53:35.026Z,10.20
2019-01-06T04:56:21.623Z,9.40
2019-01-06T04:59:08.230Z,8.07
2019-01-06T05:01:54.903Z,9.43
2019-01-06T05:04:41.758Z,8.53
2019-01-06T05:07:28.353Z,9.33
2019-01-06T05:12:53.269Z,8.93
2019-01-06T05:15:39.883Z,8.80
2019-01-06T05:18:26.718Z,8.77
2019-01-06T05:23:47.776Z,9.60
2019-01-06T05:29:22.692Z,11.70
2019-01-06T05:32:09.294Z,13.00
2019-01-06T05:34:55.902Z,12.90
2019-01-06T05:37:42.499Z,14.63
2019-01-06T05:40:29.118Z,14.77
2019-01-06T05:43:15.947Z,14.57
2019-01-06T05:46:02.562Z,14.50
2019-01-06T05:48:49.158Z,14.63
2019-01-06T05:51:36.010Z,15.60
2019-01-06T05:54:22.606Z,17.00
2019-01-06T05:57:09.447Z,17.17
2019-01-06T05:59:56.036Z,15.93
2019-01-06T06:02:42.874Z,16.67
2019-01-06T06:13:16.762Z,18.67
2019-01-06T06:16:03.355Z,18.10
2019-01-06T06:18:49.967Z,19.90
2019-01-06T06:21:36.561Z,20.93
2019-01-06T06:24:23.418Z,19.63
2019-01-06T06:27:10.051Z,20.23
2019-01-06T06:32:44.743Z,21.23
2019-01-06T06:38:19.426Z,21.50
2019-01-06T06:41:06.014Z,22.90
2019-01-06T06:43:52.646Z,20.43
2019-01-06T06:46:39.262Z,19.93
2019-01-06T06:49:25.859Z,21.00
2019-01-06T06:52:12.474Z,19.67
2019-01-06T06:54:59.066Z,20.40
2019-01-06T06:58:05.022Z,21.20
2019-01-06T07:01:10.996Z,18.97
2019-01-06T07:07:05.258Z,16.67
2019-01-06T07:09:51.875Z,18.07
2019-01-06T07:12:38.487Z,16.07
2019-01-06T07:21:06.735Z,15.77
2019-01-06T07:23:53.331Z,14.77
2019-01-06T07:26:40.176Z,15.07
2019-01-06T07:29:26.774Z,16.20
2019-01-06T07:40:08.329Z,14.77
2019-01-06T07:48:36.763Z,16.20
2019-01-06T07:51:23.414Z,15.03
2019-01-06T07:54:10.023Z,14.70
2019-01-06T08:04:53.566Z,16.83
2019-01-06T08:07:40.170Z,16.93
2019-01-06T08:13:20.718Z,17.27
2019-01-06T08:16:07.321Z,18.90
2019-01-06T08:18:53.966Z,18.30
2019-01-06T08:24:28.883Z,18.63
2019-01-06T08:30:03.814Z,21.17
2019-01-06T08:32:50.412Z,21.13
2019-01-06T08:38:29.057Z,19.20
2019-01-06T08:41:15.902Z,21.70
2019-01-06T08:49:15.235Z,20.10
2019-01-06T08:52:02.062Z,23.27
2019-01-06T08:54:48.936Z,22.20
2019-01-06T08:57:35.526Z,21.53
2019-01-06T09:03:16.022Z,21.20
2019-01-06T09:06:02.650Z,21.40
2019-01-06T09:08:49.475Z,22.27
2019-01-06T09:11:36.417Z,20.90
2019-01-06T09:14:23.266Z,23.10
2019-01-06T09:17:10.094Z,23.00
2019-01-06T09:19:56.730Z,20.07
2019-01-06T09:22:43.350Z,23.63
2019-01-06T09:28:18.046Z,24.00
2019-01-06T09:31:04.670Z,23.20
2019-01-06T09:33:51.290Z,23.23
2019-01-06T09:44:57.967Z,20.87
2019-01-06T09:47:44.835Z,22.80
2019-01-06T09:55:58.041Z,20.33
2019-01-06T10:01:32.994Z,20.90
2019-01-06T10:04:19.611Z,21.17
2019-01-06T10:09:54.307Z,20.40
2019-01-06T10:12:41.148Z,19.10
2019-01-06T10:18:01.853Z,21.63
2019-01-06T10:20:48.481Z,19.73
2019-01-06T10:23:35.334Z,20.87
2019-01-06T10:26:21.962Z,18.37
2019-01-06T10:29:08.580Z,20.90
2019-01-06T10:31:55.171Z,17.57
2019-01-06T10:37:16.138Z,19.10
2019-01-06T10:40:02.755Z,19.53
2019-01-06T10:42:49.364Z,18.10
2019-01-06T10:45:35.971Z,17.60
2019-01-06T10:48:22.652Z,18.07
2019-01-06T10:53:43.795Z,18.00
2019-01-06T10:56:30.382Z,18.47
2019-01-06T11:01:55.894Z,17.57
2019-01-06T11:04:42.500Z,17.10
2019-01-06T11:07:29.121Z,17.40
2019-01-06T11:10:15.722Z,17.70
2019-01-06T11:13:02.333Z,17.73
2019-01-06T11:18:27.110Z,17.97
2019-01-06T11:21:13.951Z,19.23
2019-01-06T11:24:00.579Z,18.20
2019-01-06T11:29:35.270Z,18.57
2019-01-06T11:32:21.889Z,17.83
2019-01-06T11:37:42.927Z,19.50
2019-01-06T11:40:29.535Z,19.03
2019-01-06T11:43:16.160Z,19.13
2019-01-06T11:46:02.777Z,19.30
2019-01-06T11:51:37.716Z,18.13
2019-01-06T12:02:21.618Z,20.67
2019-01-06T12:05:08.210Z,19.23
2019-01-06T12:07:54.850Z,19.60
2019-01-06T12:13:19.625Z,18.23
2019-01-06T12:16:06.250Z,17.20
2019-01-06T12:18:52.842Z,17.07
2019-01-06T12:21:39.470Z,16.90
2019-01-06T12:29:38.557Z,16.07
2019-01-06T12:32:25.389Z,16.93
2019-01-06T12:35:12.278Z,16.67
2019-01-06T12:37:58.934Z,14.63
2019-01-06T12:40:45.861Z,14.77
2019-01-06T12:43:32.471Z,14.37
2019-01-06T12:46:19.089Z,14.73
2019-01-06T12:49:05.710Z,14.77
2019-01-06T12:51:52.302Z,14.53
2019-01-06T12:54:38.928Z,14.83
2019-01-06T12:57:25.558Z,15.37
2019-01-06T13:02:46.936Z,14.60
2019-01-06T13:05:33.765Z,14.73
2019-01-06T13:10:54.926Z,13.90
2019-01-06T13:13:41.567Z,14.13
2019-01-06T13:16:28.141Z,14.17
2019-01-06T13:19:14.991Z,14.03
2019-01-06T13:22:01.587Z,15.30
2019-01-06T13:24:48.210Z,14.20
2019-01-06T13:27:34.802Z,14.37
2019-01-06T13:30:21.422Z,14.07
2019-01-06T13:33:08.040Z,14.63
2019-01-06T13:35:54.653Z,16.73
2019-01-06T13:38:41.523Z,18.37
2019-01-06T13:41:28.115Z,18.87
2019-01-06T13:44:14.734Z,19.07
2019-01-06T13:47:01.346Z,19.03
2019-01-06T13:49:48.178Z,17.57
2019-01-06T13:52:34.796Z,17.97
2019-01-06T13:58:09.730Z,17.30
2019-01-06T14:00:56.359Z,18.50
2019-01-06T14:03:42.950Z,18.93
2019-01-06T14:06:38.279Z,17.60
2019-01-06T14:14:53.103Z,18.00
2019-01-06T14:17:39.698Z,16.80
2019-01-06T14:20:26.323Z,16.00
2019-01-06T14:26:01.242Z,17.10
2019-01-06T14:28:47.863Z,17.20
2019-01-06T14:31:34.459Z,18.33
2019-01-06T14:34:21.066Z,17.67
2019-01-06T14:37:07.698Z,17.30
2019-01-06T14:39:54.296Z,18.40
2019-01-06T14:45:19.463Z,18.43
2019-01-06T14:48:06.074Z,17.83
2019-01-06T14:50:52.719Z,17.07
2019-01-06T14:53:39.352Z,18.67
2019-01-06T14:59:14.046Z,18.07
2019-01-06T15:02:00.883Z,17.27
2019-01-06T15:04:47.502Z,16.83
2019-01-06T15:07:34.136Z,17.10
2019-01-06T15:10:20.725Z,17.40
2019-01-06T15:18:16.434Z,16.40
2019-01-06T15:21:03.035Z,15.80
2019-01-06T15:23:49.658Z,15.80
2019-01-06T15:29:14.772Z,14.43
2019-01-06T15:32:01.627Z,13.07
2019-01-06T15:37:36.334Z,12.00
2019-01-06T15:43:30.431Z,12.57
2019-01-06T15:46:17.051Z,12.30
2019-01-06T15:49:03.919Z,11.87
2019-01-06T15:51:50.534Z,11.90
2019-01-06T15:54:37.158Z,11.70
2019-01-06T15:57:23.994Z,11.30
2019-01-06T16:00:10.613Z,12.27
2019-01-06T16:02:57.441Z,12.10
2019-01-06T16:05:44.061Z,11.47
2019-01-06T16:08:30.682Z,11.23
2019-01-06T16:11:17.305Z,11.40
2019-01-06T16:14:03.979Z,10.60
2019-01-06T16:16:50.596Z,11.97
2019-01-06T16:19:37.422Z,12.40
2019-01-06T16:22:24.047Z,10.93
2019-01-06T16:25:10.671Z,10.60
2019-01-06T16:30:45.591Z,10.07
2019-01-06T16:33:32.215Z,8.80
2019-01-06T16:36:18.802Z,9.17
2019-01-06T16:39:05.658Z,9.73
2019-01-06T16:41:52.254Z,9.17
2019-01-06T16:44:39.113Z,9.90
2019-01-06T16:47:25.740Z,10.10
2019-01-06T16:50:12.345Z,10.70
2019-01-06T16:52:58.972Z,10.13
2019-01-06T16:55:45.706Z,11.80
2019-01-06T16:58:32.550Z,11.43
2019-01-06T17:01:19.182Z,13.10
2019-01-06T17:04:05.806Z,12.73
2019-01-06T17:06:52.406Z,13.03
2019-01-06T17:09:39.026Z,13.50
2019-01-06T17:12:25.619Z,14.03
2019-01-06T17:15:12.248Z,14.13
2019-01-06T17:20:46.949Z,14.90
2019-01-06T17:23:33.538Z,15.63
2019-01-06T17:26:20.394Z,16.70
2019-01-06T17:29:06.987Z,15.47
2019-01-06T17:34:32.267Z,17.23
2019-01-06T17:37:18.893Z,17.67
2019-01-06T17:40:05.479Z,17.43
2019-01-06T17:42:53.038Z,18.37
2019-01-06T17:45:40.419Z,18.20
2019-01-06T17:51:05.454Z,19.47
2019-01-06T17:53:52.085Z,17.73
2019-01-06T17:56:38.658Z,18.67
2019-01-06T17:59:25.294Z,17.63
2019-01-06T18:05:00.223Z,18.83
2019-01-06T18:07:46.826Z,18.97
2019-01-06T18:13:12.200Z,20.13
2019-01-06T18:15:58.814Z,20.03
2019-01-06T18:18:45.419Z,20.37
2019-01-06T18:21:32.026Z,19.30
2019-01-06T18:26:57.058Z,19.50
2019-01-06T18:29:43.675Z,20.30
2019-01-06T18:32:30.270Z,20.07
2019-01-06T18:35:17.131Z,19.33
2019-01-06T18:38:03.728Z,20.63
2019-01-06T18:40:50.345Z,21.03
2019-01-06T18:43:37.205Z,20.27
2019-01-06T18:46:23.830Z,19.53
2019-01-06T18:49:10.446Z,19.00
2019-01-06T18:51:57.274Z,20.47
2019-01-06T18:54:43.898Z,20.13
2019-01-06T18:57:30.496Z,19.87
2019-01-06T19:02:55.531Z,19.53
2019-01-06T19:05:42.131Z,20.73
2019-01-06T19:08:28.982Z,19.87
2019-01-06T19:11:15.606Z,20.30
2019-01-06T19:14:02.223Z,20.03
2019-01-06T19:16:48.838Z,20.77
2019-01-06T19:19:35.871Z,20.27
2019-01-06T19:22:22.554Z,19.73
2019-01-06T19:25:09.150Z,20.63
2019-01-06T19:30:30.174Z,20.60
2019-01-06T19:33:17.010Z,20.93
2019-01-06T19:38:38.148Z,20.50
2019-01-06T19:41:24.734Z,21.00
2019-01-06T19:44:11.366Z,22.13
2019-01-06T19:46:57.958Z,21.97
2019-01-06T19:49:44.811Z,21.07
2019-01-06T19:52:31.642Z,20.73
2019-01-06T19:55:18.262Z,21.00
2019-01-06T19:58:04.886Z,20.70
2019-01-06T20:00:51.503Z,21.37
2019-01-06T20:03:38.093Z,20.80
2019-01-06T20:11:37.791Z,19.63
2019-01-06T20:17:12.495Z,19.67
2019-01-06T20:19:59.088Z,19.00
2019-01-06T20:22:45.711Z,21.63
2019-01-06T20:25:32.546Z,21.10
2019-01-06T20:28:19.167Z,19.83
2019-01-06T20:31:05.790Z,21.83
2019-01-06T20:33:52.628Z,22.37
2019-01-06T20:36:39.250Z,22.80
2019-01-06T20:42:33.119Z,21.43
2019-01-06T20:45:19.735Z,20.23
2019-01-06T20:50:54.434Z,21.30
2019-01-06T20:53:41.053Z,19.77
2019-01-06T20:59:06.070Z,18.83
2019-01-06T21:01:52.687Z,20.03
2019-01-06T21:04:39.532Z,20.33
2019-01-06T21:07:26.150Z,21.33
2019-01-06T21:10:12.765Z,22.33
2019-01-06T21:12:59.838Z,21.60
2019-01-06T21:15:46.515Z,21.63
2019-01-06T21:18:33.169Z,20.90
2019-01-06T21:21:19.825Z,22.63
2019-01-06T21:29:33.038Z,23.93
2019-01-06T21:32:19.788Z,24.63
2019-01-06T21:35:18.888Z,25.37
2019-01-06T21:37:54.855Z,24.83
2019-01-06T21:43:20.047Z,25.40
2019-01-06T21:49:14.253Z,25.80
2019-01-06T21:54:49.005Z,26.10
2019-01-06T22:00:41.343Z,26.40
2019-01-06T22:03:27.972Z,28.20
2019-01-06T22:06:14.577Z,27.90
2019-01-06T22:11:55.435Z,25.97
2019-01-06T22:23:17.371Z,27.03
2019-01-06T22:26:03.976Z,26.97
2019-01-06T22:28:52.350Z,27.77
2019-01-06T22:31:39.487Z,27.17
2019-01-06T22:37:19.918Z,24.97
2019-01-06T22:43:13.959Z,25.07
2019-01-06T22:46:00.582Z,24.23
2019-01-06T22:48:47.769Z,25.13
2019-01-06T22:51:34.490Z,23.93
2019-01-06T22:54:21.135Z,23.87
2019-01-06T22:57:08.008Z,23.80
2019-01-06T23:00:13.983Z,25.53
2019-01-06T23:05:48.955Z,26.17
2019-01-06T23:08:35.703Z,24.60
2019-01-06T23:11:22.910Z,25.93
2019-01-06T23:14:09.575Z,26.00
2019-01-06T23:16:56.188Z,24.27
2019-01-06T23:19:42.779Z,24.30
2019-01-06T23:22:29.423Z,24.50
2019-01-06T23:25:16.899Z,24.43
2019-01-06T23:28:03.518Z,24.03
2019-01-06T23:31:09.723Z,22.73
2019-01-06T23:36:44.508Z,23.60
2019-01-06T23:39:31.329Z,22.83
2019-01-06T23:45:12.502Z,23.50
2019-01-06T23:47:59.119Z,22.57
2019-01-06T23:50:45.943Z,23.37
2019-01-06T23:53:32.551Z,23.50
2019-01-06T23:56:19.162Z,24.47
